sensor_id;sensor_type;location;lat;lon;timestamp;temperature;humidity
13707;DHT22;6925;47.816;13.072;2023-07-20T00:01:00;21.40;82.30
13707;DHT22;6925;47.816;13.072;2023-07-20T00:03:27;21.40;82.50
13707;DHT22;6925;47.816;13.072;2023-07-20T00:05:54;21.50;82.40
13707;DHT22;6925;47.816;13.072;2023-07-20T00:08:21;21.50;82.60
13707;DHT22;6925;47.816;13.072;2023-07-20T00:10:48;21.50;82.00
13707;DHT22;6925;47.816;13.072;2023-07-20T00:13:17;21.40;81.50
13707;DHT22;6925;47.816;13.072;2023-07-20T00:15:44;21.40;82.30
13707;DHT22;6925;47.816;13.072;2023-07-20T00:18:12;21.40;82.10
13707;DHT22;6925;47.816;13.072;2023-07-20T00:20:39;21.40;82.40
13707;DHT22;6925;47.816;13.072;2023-07-20T00:23:06;21.40;82.00
13707;DHT22;6925;47.816;13.072;2023-07-20T00:25:34;21.30;82.00
13707;DHT22;6925;47.816;13.072;2023-07-20T00:28:01;21.30;82.10
13707;DHT22;6925;47.816;13.072;2023-07-20T00:30:30;21.30;82.40
13707;DHT22;6925;47.816;13.072;2023-07-20T00:32:57;21.30;81.80
13707;DHT22;6925;47.816;13.072;2023-07-20T00:35:24;21.20;82.60
13707;DHT22;6925;47.816;13.072;2023-07-20T00:37:51;21.30;82.90
13707;DHT22;6925;47.816;13.072;2023-07-20T00:40:17;21.20;82.60
13707;DHT22;6925;47.816;13.072;2023-07-20T00:42:44;21.20;82.20
13707;DHT22;6925;47.816;13.072;2023-07-20T00:45:12;21.20;83.00
13707;DHT22;6925;47.816;13.072;2023-07-20T00:47:40;21.20;83.80
13707;DHT22;6925;47.816;13.072;2023-07-20T00:50:08;21.30;83.90
13707;DHT22;6925;47.816;13.072;2023-07-20T00:52:37;21.30;83.60
13707;DHT22;6925;47.816;13.072;2023-07-20T00:55:07;21.20;83.60
13707;DHT22;6925;47.816;13.072;2023-07-20T00:57:34;21.20;83.90
13707;DHT22;6925;47.816;13.072;2023-07-20T01:00:01;21.20;84.10
13707;DHT22;6925;47.816;13.072;2023-07-20T01:02:28;21.30;84.20
13707;DHT22;6925;47.816;13.072;2023-07-20T01:04:57;21.30;83.70
13707;DHT22;6925;47.816;13.072;2023-07-20T01:07:26;21.30;83.90
13707;DHT22;6925;47.816;13.072;2023-07-20T01:10:03;21.30;83.70
13707;DHT22;6925;47.816;13.072;2023-07-20T01:12:39;21.30;83.50
13707;DHT22;6925;47.816;13.072;2023-07-20T01:15:08;21.30;83.60
13707;DHT22;6925;47.816;13.072;2023-07-20T01:17:36;21.30;83.40
13707;DHT22;6925;47.816;13.072;2023-07-20T01:20:05;21.30;83.90
13707;DHT22;6925;47.816;13.072;2023-07-20T01:22:55;21.20;83.50
13707;DHT22;6925;47.816;13.072;2023-07-20T01:25:34;21.20;83.20
13707;DHT22;6925;47.816;13.072;2023-07-20T01:28:40;21.10;83.50
13707;DHT22;6925;47.816;13.072;2023-07-20T01:31:24;21.00;83.30
13707;DHT22;6925;47.816;13.072;2023-07-20T01:33:55;21.00;83.80
13707;DHT22;6925;47.816;13.072;2023-07-20T01:36:24;21.00;83.40
13707;DHT22;6925;47.816;13.072;2023-07-20T01:38:53;21.00;83.70
13707;DHT22;6925;47.816;13.072;2023-07-20T01:41:21;21.00;83.80
13707;DHT22;6925;47.816;13.072;2023-07-20T01:43:48;21.00;84.10
13707;DHT22;6925;47.816;13.072;2023-07-20T01:46:15;21.00;84.00
13707;DHT22;6925;47.816;13.072;2023-07-20T01:48:43;21.00;83.60
13707;DHT22;6925;47.816;13.072;2023-07-20T01:51:10;20.90;84.40
13707;DHT22;6925;47.816;13.072;2023-07-20T01:53:37;20.90;84.80
13707;DHT22;6925;47.816;13.072;2023-07-20T01:56:04;21.00;85.30
13707;DHT22;6925;47.816;13.072;2023-07-20T01:58:31;21.10;84.90
13707;DHT22;6925;47.816;13.072;2023-07-20T02:00:58;21.10;84.80
13707;DHT22;6925;47.816;13.072;2023-07-20T02:03:25;21.20;85.20
13707;DHT22;6925;47.816;13.072;2023-07-20T02:05:53;21.20;84.90
13707;DHT22;6925;47.816;13.072;2023-07-20T02:08:20;21.20;85.10
13707;DHT22;6925;47.816;13.072;2023-07-20T02:10:48;21.20;84.20
13707;DHT22;6925;47.816;13.072;2023-07-20T02:13:15;21.10;84.60
13707;DHT22;6925;47.816;13.072;2023-07-20T02:15:42;21.10;84.40
13707;DHT22;6925;47.816;13.072;2023-07-20T02:18:10;21.00;84.00
13707;DHT22;6925;47.816;13.072;2023-07-20T02:20:37;21.00;84.50
13707;DHT22;6925;47.816;13.072;2023-07-20T02:23:05;21.00;84.20
13707;DHT22;6925;47.816;13.072;2023-07-20T02:25:32;20.90;84.60
13707;DHT22;6925;47.816;13.072;2023-07-20T02:27:59;21.00;84.70
13707;DHT22;6925;47.816;13.072;2023-07-20T02:30:26;21.00;84.40
13707;DHT22;6925;47.816;13.072;2023-07-20T02:32:53;20.90;83.20
13707;DHT22;6925;47.816;13.072;2023-07-20T02:35:24;20.90;84.00
13707;DHT22;6925;47.816;13.072;2023-07-20T02:37:51;20.80;84.50
13707;DHT22;6925;47.816;13.072;2023-07-20T02:40:20;20.70;84.70
13707;DHT22;6925;47.816;13.072;2023-07-20T02:42:47;20.70;84.80
13707;DHT22;6925;47.816;13.072;2023-07-20T02:45:14;20.70;85.40
13707;DHT22;6925;47.816;13.072;2023-07-20T02:47:41;20.70;84.80
13707;DHT22;6925;47.816;13.072;2023-07-20T02:50:09;20.60;85.30
13707;DHT22;6925;47.816;13.072;2023-07-20T02:52:36;20.50;84.90
13707;DHT22;6925;47.816;13.072;2023-07-20T02:55:03;20.40;84.80
13707;DHT22;6925;47.816;13.072;2023-07-20T02:57:32;20.40;85.40
13707;DHT22;6925;47.816;13.072;2023-07-20T02:59:59;20.30;85.10
13707;DHT22;6925;47.816;13.072;2023-07-20T03:02:30;20.20;86.30
13707;DHT22;6925;47.816;13.072;2023-07-20T03:04:57;20.20;85.60
13707;DHT22;6925;47.816;13.072;2023-07-20T03:07:27;20.10;85.90
13707;DHT22;6925;47.816;13.072;2023-07-20T03:09:54;20.10;86.70
13707;DHT22;6925;47.816;13.072;2023-07-20T03:12:21;20.10;86.60
13707;DHT22;6925;47.816;13.072;2023-07-20T03:14:51;20.10;86.40
13707;DHT22;6925;47.816;13.072;2023-07-20T03:17:18;20.10;86.50
13707;DHT22;6925;47.816;13.072;2023-07-20T03:19:46;20.10;86.60
13707;DHT22;6925;47.816;13.072;2023-07-20T03:22:13;20.00;86.70
13707;DHT22;6925;47.816;13.072;2023-07-20T03:24:40;19.90;87.50
13707;DHT22;6925;47.816;13.072;2023-07-20T03:27:06;19.80;88.20
13707;DHT22;6925;47.816;13.072;2023-07-20T03:29:33;19.80;88.30
13707;DHT22;6925;47.816;13.072;2023-07-20T03:32:02;19.90;88.80
13707;DHT22;6925;47.816;13.072;2023-07-20T03:34:29;20.10;87.70
13707;DHT22;6925;47.816;13.072;2023-07-20T03:36:56;20.10;87.70
13707;DHT22;6925;47.816;13.072;2023-07-20T03:39:23;20.20;87.50
13707;DHT22;6925;47.816;13.072;2023-07-20T03:41:49;20.20;87.70
13707;DHT22;6925;47.816;13.072;2023-07-20T03:44:17;20.20;88.10
13707;DHT22;6925;47.816;13.072;2023-07-20T03:46:43;20.20;88.00
13707;DHT22;6925;47.816;13.072;2023-07-20T03:49:12;20.30;87.70
13707;DHT22;6925;47.816;13.072;2023-07-20T03:51:39;20.30;87.70
13707;DHT22;6925;47.816;13.072;2023-07-20T03:54:06;20.30;87.60
13707;DHT22;6925;47.816;13.072;2023-07-20T03:56:33;20.40;87.60
13707;DHT22;6925;47.816;13.072;2023-07-20T03:59:01;20.40;87.80
13707;DHT22;6925;47.816;13.072;2023-07-20T04:01:27;20.50;87.60
13707;DHT22;6925;47.816;13.072;2023-07-20T04:03:55;20.50;87.40
13707;DHT22;6925;47.816;13.072;2023-07-20T04:06:24;20.50;87.00
13707;DHT22;6925;47.816;13.072;2023-07-20T04:08:51;20.50;86.60
13707;DHT22;6925;47.816;13.072;2023-07-20T04:11:18;20.60;87.30
13707;DHT22;6925;47.816;13.072;2023-07-20T04:13:45;20.60;87.30
13707;DHT22;6925;47.816;13.072;2023-07-20T04:16:12;20.70;87.40
13707;DHT22;6925;47.816;13.072;2023-07-20T04:18:39;20.70;86.90
13707;DHT22;6925;47.816;13.072;2023-07-20T04:21:08;20.70;86.90
13707;DHT22;6925;47.816;13.072;2023-07-20T04:23:36;20.70;86.80
13707;DHT22;6925;47.816;13.072;2023-07-20T04:26:03;20.70;87.30
13707;DHT22;6925;47.816;13.072;2023-07-20T04:28:32;20.70;87.20
13707;DHT22;6925;47.816;13.072;2023-07-20T04:31:09;20.70;86.80
13707;DHT22;6925;47.816;13.072;2023-07-20T04:33:36;20.70;87.00
13707;DHT22;6925;47.816;13.072;2023-07-20T04:36:03;20.70;86.90
13707;DHT22;6925;47.816;13.072;2023-07-20T04:38:30;20.80;87.10
13707;DHT22;6925;47.816;13.072;2023-07-20T04:40:58;20.80;86.90
13707;DHT22;6925;47.816;13.072;2023-07-20T04:43:25;20.80;86.40
13707;DHT22;6925;47.816;13.072;2023-07-20T04:45:53;20.80;86.00
13707;DHT22;6925;47.816;13.072;2023-07-20T04:48:20;20.70;86.20
13707;DHT22;6925;47.816;13.072;2023-07-20T04:50:47;20.70;85.60
13707;DHT22;6925;47.816;13.072;2023-07-20T04:53:13;20.60;85.70
13707;DHT22;6925;47.816;13.072;2023-07-20T04:55:46;20.50;86.10
13707;DHT22;6925;47.816;13.072;2023-07-20T04:58:17;20.60;86.70
13707;DHT22;6925;47.816;13.072;2023-07-20T05:00:45;20.60;86.90
13707;DHT22;6925;47.816;13.072;2023-07-20T05:03:12;20.50;87.80
13707;DHT22;6925;47.816;13.072;2023-07-20T05:05:39;20.50;88.80
13707;DHT22;6925;47.816;13.072;2023-07-20T05:08:05;20.60;88.80
13707;DHT22;6925;47.816;13.072;2023-07-20T05:10:32;20.70;89.00
13707;DHT22;6925;47.816;13.072;2023-07-20T05:12:59;20.70;88.40
13707;DHT22;6925;47.816;13.072;2023-07-20T05:15:28;20.70;87.90
13707;DHT22;6925;47.816;13.072;2023-07-20T05:17:55;20.70;88.70
13707;DHT22;6925;47.816;13.072;2023-07-20T05:20:22;20.70;89.20
13707;DHT22;6925;47.816;13.072;2023-07-20T05:22:49;20.80;89.30
13707;DHT22;6925;47.816;13.072;2023-07-20T05:25:15;20.80;89.20
13707;DHT22;6925;47.816;13.072;2023-07-20T05:27:45;20.80;89.00
13707;DHT22;6925;47.816;13.072;2023-07-20T05:30:12;20.90;89.30
13707;DHT22;6925;47.816;13.072;2023-07-20T05:32:41;20.90;89.10
13707;DHT22;6925;47.816;13.072;2023-07-20T05:35:08;20.90;89.20
13707;DHT22;6925;47.816;13.072;2023-07-20T05:37:37;21.00;89.20
13707;DHT22;6925;47.816;13.072;2023-07-20T05:40:06;21.00;88.70
13707;DHT22;6925;47.816;13.072;2023-07-20T05:42:33;21.00;88.20
13707;DHT22;6925;47.816;13.072;2023-07-20T05:45:00;21.00;88.20
13707;DHT22;6925;47.816;13.072;2023-07-20T05:47:27;21.00;88.10
13707;DHT22;6925;47.816;13.072;2023-07-20T05:49:56;21.00;88.60
13707;DHT22;6925;47.816;13.072;2023-07-20T05:52:23;21.10;88.00
13707;DHT22;6925;47.816;13.072;2023-07-20T05:54:50;21.00;88.10
13707;DHT22;6925;47.816;13.072;2023-07-20T05:57:17;21.00;88.80
13707;DHT22;6925;47.816;13.072;2023-07-20T05:59:44;21.10;88.70
13707;DHT22;6925;47.816;13.072;2023-07-20T06:02:11;21.10;88.20
13707;DHT22;6925;47.816;13.072;2023-07-20T06:04:39;21.10;89.00
13707;DHT22;6925;47.816;13.072;2023-07-20T06:07:07;21.10;88.90
13707;DHT22;6925;47.816;13.072;2023-07-20T06:09:35;21.10;88.70
13707;DHT22;6925;47.816;13.072;2023-07-20T06:12:02;21.10;88.40
13707;DHT22;6925;47.816;13.072;2023-07-20T06:14:29;21.10;88.20
13707;DHT22;6925;47.816;13.072;2023-07-20T06:16:56;21.10;88.00
13707;DHT22;6925;47.816;13.072;2023-07-20T06:19:23;21.10;88.30
13707;DHT22;6925;47.816;13.072;2023-07-20T06:21:50;21.10;86.80
13707;DHT22;6925;47.816;13.072;2023-07-20T06:24:18;21.00;86.80
13707;DHT22;6925;47.816;13.072;2023-07-20T06:26:45;20.90;87.00
13707;DHT22;6925;47.816;13.072;2023-07-20T06:29:12;20.90;87.10
13707;DHT22;6925;47.816;13.072;2023-07-20T06:31:39;20.90;86.90
13707;DHT22;6925;47.816;13.072;2023-07-20T06:34:06;20.90;87.30
13707;DHT22;6925;47.816;13.072;2023-07-20T06:36:33;20.90;86.60
13707;DHT22;6925;47.816;13.072;2023-07-20T06:39:00;20.90;86.40
13707;DHT22;6925;47.816;13.072;2023-07-20T06:41:29;20.80;86.60
13707;DHT22;6925;47.816;13.072;2023-07-20T06:43:56;20.80;87.80
13707;DHT22;6925;47.816;13.072;2023-07-20T06:46:24;20.90;87.60
13707;DHT22;6925;47.816;13.072;2023-07-20T06:48:52;20.90;86.90
13707;DHT22;6925;47.816;13.072;2023-07-20T06:51:19;20.90;87.10
13707;DHT22;6925;47.816;13.072;2023-07-20T06:53:46;20.90;87.60
13707;DHT22;6925;47.816;13.072;2023-07-20T06:56:13;20.90;86.40
13707;DHT22;6925;47.816;13.072;2023-07-20T06:58:41;20.90;86.70
13707;DHT22;6925;47.816;13.072;2023-07-20T07:01:08;20.90;87.20
13707;DHT22;6925;47.816;13.072;2023-07-20T07:03:36;20.90;85.50
13707;DHT22;6925;47.816;13.072;2023-07-20T07:06:03;20.80;85.80
13707;DHT22;6925;47.816;13.072;2023-07-20T07:08:30;20.80;86.80
13707;DHT22;6925;47.816;13.072;2023-07-20T07:10:57;20.80;86.80
13707;DHT22;6925;47.816;13.072;2023-07-20T07:13:24;20.80;86.40
13707;DHT22;6925;47.816;13.072;2023-07-20T07:15:53;20.80;87.50
13707;DHT22;6925;47.816;13.072;2023-07-20T07:18:20;20.80;86.60
13707;DHT22;6925;47.816;13.072;2023-07-20T07:20:50;20.80;87.40
13707;DHT22;6925;47.816;13.072;2023-07-20T07:23:17;20.80;86.90
13707;DHT22;6925;47.816;13.072;2023-07-20T07:25:44;20.80;87.20
13707;DHT22;6925;47.816;13.072;2023-07-20T07:28:11;20.80;86.90
13707;DHT22;6925;47.816;13.072;2023-07-20T07:30:38;20.80;86.50
13707;DHT22;6925;47.816;13.072;2023-07-20T07:33:06;20.80;86.30
13707;DHT22;6925;47.816;13.072;2023-07-20T07:35:34;20.70;86.60
13707;DHT22;6925;47.816;13.072;2023-07-20T07:38:01;20.70;87.00
13707;DHT22;6925;47.816;13.072;2023-07-20T07:40:28;20.80;87.30
13707;DHT22;6925;47.816;13.072;2023-07-20T07:42:54;20.80;87.20
13707;DHT22;6925;47.816;13.072;2023-07-20T07:45:21;20.80;87.90
13707;DHT22;6925;47.816;13.072;2023-07-20T07:47:48;20.80;87.90
13707;DHT22;6925;47.816;13.072;2023-07-20T07:50:17;20.90;86.40
13707;DHT22;6925;47.816;13.072;2023-07-20T07:52:44;20.80;86.50
13707;DHT22;6925;47.816;13.072;2023-07-20T07:55:11;20.80;87.60
13707;DHT22;6925;47.816;13.072;2023-07-20T07:57:38;20.90;88.00
13707;DHT22;6925;47.816;13.072;2023-07-20T08:00:05;20.90;88.20
13707;DHT22;6925;47.816;13.072;2023-07-20T08:02:37;21.00;88.80
13707;DHT22;6925;47.816;13.072;2023-07-20T08:05:04;21.00;87.90
13707;DHT22;6925;47.816;13.072;2023-07-20T08:07:32;21.10;87.70
13707;DHT22;6925;47.816;13.072;2023-07-20T08:09:59;21.10;87.20
13707;DHT22;6925;47.816;13.072;2023-07-20T08:12:27;21.10;86.90
13707;DHT22;6925;47.816;13.072;2023-07-20T08:14:54;21.10;87.00
13707;DHT22;6925;47.816;13.072;2023-07-20T08:17:21;21.00;86.80
13707;DHT22;6925;47.816;13.072;2023-07-20T08:19:48;21.00;86.80
13707;DHT22;6925;47.816;13.072;2023-07-20T08:22:15;21.10;86.90
13707;DHT22;6925;47.816;13.072;2023-07-20T08:24:44;21.10;86.90
13707;DHT22;6925;47.816;13.072;2023-07-20T08:27:11;21.10;86.80
13707;DHT22;6925;47.816;13.072;2023-07-20T08:29:38;21.20;87.50
13707;DHT22;6925;47.816;13.072;2023-07-20T08:32:06;21.20;87.10
13707;DHT22;6925;47.816;13.072;2023-07-20T08:34:34;21.30;87.90
13707;DHT22;6925;47.816;13.072;2023-07-20T08:37:00;21.30;87.70
13707;DHT22;6925;47.816;13.072;2023-07-20T08:39:27;21.40;88.20
13707;DHT22;6925;47.816;13.072;2023-07-20T08:41:56;21.40;88.20
13707;DHT22;6925;47.816;13.072;2023-07-20T08:44:26;21.50;88.40
13707;DHT22;6925;47.816;13.072;2023-07-20T08:46:54;21.70;88.70
13707;DHT22;6925;47.816;13.072;2023-07-20T08:49:21;21.70;88.40
13707;DHT22;6925;47.816;13.072;2023-07-20T08:51:48;21.80;87.80
13707;DHT22;6925;47.816;13.072;2023-07-20T08:54:16;21.90;87.80
13707;DHT22;6925;47.816;13.072;2023-07-20T08:56:45;22.00;86.70
13707;DHT22;6925;47.816;13.072;2023-07-20T08:59:16;21.90;85.30
13707;DHT22;6925;47.816;13.072;2023-07-20T09:01:44;21.90;85.60
13707;DHT22;6925;47.816;13.072;2023-07-20T09:04:12;22.00;86.00
13707;DHT22;6925;47.816;13.072;2023-07-20T09:06:40;22.00;86.40
13707;DHT22;6925;47.816;13.072;2023-07-20T09:09:06;22.10;84.80
13707;DHT22;6925;47.816;13.072;2023-07-20T09:11:34;22.10;85.40
13707;DHT22;6925;47.816;13.072;2023-07-20T09:14:04;22.20;86.30
13707;DHT22;6925;47.816;13.072;2023-07-20T09:16:33;22.30;85.00
13707;DHT22;6925;47.816;13.072;2023-07-20T09:19:14;22.40;84.70
13707;DHT22;6925;47.816;13.072;2023-07-20T09:21:44;22.50;85.00
13707;DHT22;6925;47.816;13.072;2023-07-20T09:24:11;22.60;83.10
13707;DHT22;6925;47.816;13.072;2023-07-20T09:26:41;22.60;81.90
13707;DHT22;6925;47.816;13.072;2023-07-20T09:29:09;22.70;81.60
13707;DHT22;6925;47.816;13.072;2023-07-20T09:31:37;22.80;85.00
13707;DHT22;6925;47.816;13.072;2023-07-20T09:34:05;23.00;85.00
13707;DHT22;6925;47.816;13.072;2023-07-20T09:36:34;23.30;85.20
13707;DHT22;6925;47.816;13.072;2023-07-20T09:39:03;23.40;82.40
13707;DHT22;6925;47.816;13.072;2023-07-20T09:41:39;23.40;76.50
13707;DHT22;6925;47.816;13.072;2023-07-20T09:44:07;23.30;80.50
13707;DHT22;6925;47.816;13.072;2023-07-20T09:46:44;23.40;81.30
13707;DHT22;6925;47.816;13.072;2023-07-20T09:49:12;23.40;81.50
13707;DHT22;6925;47.816;13.072;2023-07-20T09:51:39;23.50;81.10
13707;DHT22;6925;47.816;13.072;2023-07-20T09:54:08;23.50;79.60
13707;DHT22;6925;47.816;13.072;2023-07-20T09:56:35;23.50;76.70
13707;DHT22;6925;47.816;13.072;2023-07-20T09:59:04;23.40;78.00
13707;DHT22;6925;47.816;13.072;2023-07-20T10:01:31;23.60;78.30
13707;DHT22;6925;47.816;13.072;2023-07-20T10:04:03;23.80;76.60
13707;DHT22;6925;47.816;13.072;2023-07-20T10:06:33;24.00;77.50
13707;DHT22;6925;47.816;13.072;2023-07-20T10:09:02;24.30;77.40
13707;DHT22;6925;47.816;13.072;2023-07-20T10:11:35;24.50;76.80
13707;DHT22;6925;47.816;13.072;2023-07-20T10:14:04;24.60;73.70
13707;DHT22;6925;47.816;13.072;2023-07-20T10:16:35;24.70;73.20
13707;DHT22;6925;47.816;13.072;2023-07-20T10:19:05;24.70;68.90
13707;DHT22;6925;47.816;13.072;2023-07-20T10:21:36;24.70;72.70
13707;DHT22;6925;47.816;13.072;2023-07-20T10:24:05;24.80;71.40
13707;DHT22;6925;47.816;13.072;2023-07-20T10:26:33;24.80;72.00
13707;DHT22;6925;47.816;13.072;2023-07-20T10:29:01;24.90;71.00
13707;DHT22;6925;47.816;13.072;2023-07-20T10:31:29;24.90;68.60
13707;DHT22;6925;47.816;13.072;2023-07-20T10:33:57;24.90;69.90
13707;DHT22;6925;47.816;13.072;2023-07-20T10:36:26;24.90;66.00
13707;DHT22;6925;47.816;13.072;2023-07-20T10:38:55;24.90;68.70
13707;DHT22;6925;47.816;13.072;2023-07-20T10:41:28;25.10;70.80
13707;DHT22;6925;47.816;13.072;2023-07-20T10:43:58;25.20;70.30
13707;DHT22;6925;47.816;13.072;2023-07-20T10:46:43;25.30;68.60
13707;DHT22;6925;47.816;13.072;2023-07-20T10:49:12;25.40;69.40
13707;DHT22;6925;47.816;13.072;2023-07-20T10:51:42;25.40;65.10
13707;DHT22;6925;47.816;13.072;2023-07-20T10:54:46;25.50;64.60
13707;DHT22;6925;47.816;13.072;2023-07-20T10:57:21;25.50;66.70
13707;DHT22;6925;47.816;13.072;2023-07-20T10:59:48;25.60;63.70
13707;DHT22;6925;47.816;13.072;2023-07-20T11:02:18;25.60;63.50
13707;DHT22;6925;47.816;13.072;2023-07-20T11:04:46;25.50;62.00
13707;DHT22;6925;47.816;13.072;2023-07-20T11:07:37;25.60;65.20
13707;DHT22;6925;47.816;13.072;2023-07-20T11:10:13;25.70;65.60
13707;DHT22;6925;47.816;13.072;2023-07-20T11:12:41;25.90;61.80
13707;DHT22;6925;47.816;13.072;2023-07-20T11:15:08;26.00;60.90
13707;DHT22;6925;47.816;13.072;2023-07-20T11:17:35;26.00;59.50
13707;DHT22;6925;47.816;13.072;2023-07-20T11:20:05;26.20;60.50
13707;DHT22;6925;47.816;13.072;2023-07-20T11:22:32;26.20;58.50
13707;DHT22;6925;47.816;13.072;2023-07-20T11:25:01;26.00;56.70
13707;DHT22;6925;47.816;13.072;2023-07-20T11:27:29;26.00;56.00
13707;DHT22;6925;47.816;13.072;2023-07-20T11:29:56;26.00;57.70
13707;DHT22;6925;47.816;13.072;2023-07-20T11:32:24;26.20;57.70
13707;DHT22;6925;47.816;13.072;2023-07-20T11:34:51;26.30;54.80
13707;DHT22;6925;47.816;13.072;2023-07-20T11:37:18;26.30;54.90
13707;DHT22;6925;47.816;13.072;2023-07-20T11:39:46;26.30;56.00
13707;DHT22;6925;47.816;13.072;2023-07-20T11:42:15;26.50;56.20
13707;DHT22;6925;47.816;13.072;2023-07-20T11:44:42;26.60;56.00
13707;DHT22;6925;47.816;13.072;2023-07-20T11:47:10;26.60;53.20
13707;DHT22;6925;47.816;13.072;2023-07-20T11:49:39;26.60;54.20
13707;DHT22;6925;47.816;13.072;2023-07-20T11:52:07;26.60;55.00
13707;DHT22;6925;47.816;13.072;2023-07-20T11:54:35;26.70;56.20
13707;DHT22;6925;47.816;13.072;2023-07-20T11:57:03;26.80;56.70
13707;DHT22;6925;47.816;13.072;2023-07-20T11:59:32;27.00;56.00
13707;DHT22;6925;47.816;13.072;2023-07-20T12:02:01;27.10;57.10
13707;DHT22;6925;47.816;13.072;2023-07-20T12:04:28;27.20;54.50
13707;DHT22;6925;47.816;13.072;2023-07-20T12:06:56;27.40;55.90
13707;DHT22;6925;47.816;13.072;2023-07-20T12:09:23;27.50;54.00
13707;DHT22;6925;47.816;13.072;2023-07-20T12:11:50;27.60;52.60
13707;DHT22;6925;47.816;13.072;2023-07-20T12:14:17;27.70;51.30
13707;DHT22;6925;47.816;13.072;2023-07-20T12:16:52;27.90;50.30
13707;DHT22;6925;47.816;13.072;2023-07-20T12:19:20;28.10;51.60
13707;DHT22;6925;47.816;13.072;2023-07-20T12:21:47;28.30;48.20
13707;DHT22;6925;47.816;13.072;2023-07-20T12:24:14;28.50;48.80
13707;DHT22;6925;47.816;13.072;2023-07-20T12:26:41;28.60;48.30
13707;DHT22;6925;47.816;13.072;2023-07-20T12:29:09;28.80;48.50
13707;DHT22;6925;47.816;13.072;2023-07-20T12:31:37;29.00;48.70
13707;DHT22;6925;47.816;13.072;2023-07-20T12:34:05;29.10;48.40
13707;DHT22;6925;47.816;13.072;2023-07-20T12:36:34;29.10;46.90
13707;DHT22;6925;47.816;13.072;2023-07-20T12:39:01;29.10;46.60
13707;DHT22;6925;47.816;13.072;2023-07-20T12:41:29;29.00;45.80
13707;DHT22;6925;47.816;13.072;2023-07-20T12:43:56;28.90;47.00
13707;DHT22;6925;47.816;13.072;2023-07-20T12:46:24;28.90;49.40
13707;DHT22;6925;47.816;13.072;2023-07-20T12:48:51;29.00;49.00
13707;DHT22;6925;47.816;13.072;2023-07-20T12:51:20;29.10;50.00
13707;DHT22;6925;47.816;13.072;2023-07-20T12:53:47;29.20;49.60
13707;DHT22;6925;47.816;13.072;2023-07-20T12:56:14;29.20;48.70
13707;DHT22;6925;47.816;13.072;2023-07-20T12:58:41;29.20;48.50
13707;DHT22;6925;47.816;13.072;2023-07-20T13:01:08;29.10;49.00
13707;DHT22;6925;47.816;13.072;2023-07-20T13:03:35;29.20;46.70
13707;DHT22;6925;47.816;13.072;2023-07-20T13:06:03;29.20;45.60
13707;DHT22;6925;47.816;13.072;2023-07-20T13:08:31;29.10;45.70
13707;DHT22;6925;47.816;13.072;2023-07-20T13:10:58;29.10;46.10
13707;DHT22;6925;47.816;13.072;2023-07-20T13:13:26;29.30;45.00
13707;DHT22;6925;47.816;13.072;2023-07-20T13:15:53;29.40;45.10
13707;DHT22;6925;47.816;13.072;2023-07-20T13:18:20;29.70;47.60
13707;DHT22;6925;47.816;13.072;2023-07-20T13:20:47;29.80;43.90
13707;DHT22;6925;47.816;13.072;2023-07-20T13:23:14;29.90;44.00
13707;DHT22;6925;47.816;13.072;2023-07-20T13:25:43;29.90;43.30
13707;DHT22;6925;47.816;13.072;2023-07-20T13:28:10;30.00;46.00
13707;DHT22;6925;47.816;13.072;2023-07-20T13:30:37;30.20;46.00
13707;DHT22;6925;47.816;13.072;2023-07-20T13:33:04;30.40;46.90
13707;DHT22;6925;47.816;13.072;2023-07-20T13:35:31;30.50;46.00
13707;DHT22;6925;47.816;13.072;2023-07-20T13:37:58;30.50;46.40
13707;DHT22;6925;47.816;13.072;2023-07-20T13:40:25;30.50;46.20
13707;DHT22;6925;47.816;13.072;2023-07-20T13:42:53;30.50;44.80
13707;DHT22;6925;47.816;13.072;2023-07-20T13:45:21;30.40;46.40
13707;DHT22;6925;47.816;13.072;2023-07-20T13:47:48;30.40;46.20
13707;DHT22;6925;47.816;13.072;2023-07-20T13:50:15;30.40;46.90
13707;DHT22;6925;47.816;13.072;2023-07-20T13:52:42;30.40;45.30
13707;DHT22;6925;47.816;13.072;2023-07-20T13:55:09;30.10;44.60
13707;DHT22;6925;47.816;13.072;2023-07-20T13:57:36;29.80;42.70
13707;DHT22;6925;47.816;13.072;2023-07-20T14:00:06;29.70;44.30
13707;DHT22;6925;47.816;13.072;2023-07-20T14:02:36;29.70;45.00
13707;DHT22;6925;47.816;13.072;2023-07-20T14:05:03;29.80;46.20
13707;DHT22;6925;47.816;13.072;2023-07-20T14:07:31;29.80;46.00
13707;DHT22;6925;47.816;13.072;2023-07-20T14:09:58;29.80;45.00
13707;DHT22;6925;47.816;13.072;2023-07-20T14:12:26;29.70;44.70
13707;DHT22;6925;47.816;13.072;2023-07-20T14:14:53;29.80;46.00
13707;DHT22;6925;47.816;13.072;2023-07-20T14:17:22;29.70;45.20
13707;DHT22;6925;47.816;13.072;2023-07-20T14:19:49;29.80;47.60
13707;DHT22;6925;47.816;13.072;2023-07-20T14:22:17;29.70;44.90
13707;DHT22;6925;47.816;13.072;2023-07-20T14:24:44;29.70;44.50
13707;DHT22;6925;47.816;13.072;2023-07-20T14:27:11;29.80;44.90
13707;DHT22;6925;47.816;13.072;2023-07-20T14:29:38;29.90;43.40
13707;DHT22;6925;47.816;13.072;2023-07-20T14:32:06;29.80;44.20
13707;DHT22;6925;47.816;13.072;2023-07-20T14:34:34;29.90;45.20
13707;DHT22;6925;47.816;13.072;2023-07-20T14:37:01;29.90;44.00
13707;DHT22;6925;47.816;13.072;2023-07-20T14:39:29;29.90;45.60
13707;DHT22;6925;47.816;13.072;2023-07-20T14:41:57;29.90;43.90
13707;DHT22;6925;47.816;13.072;2023-07-20T14:44:24;29.80;44.40
13707;DHT22;6925;47.816;13.072;2023-07-20T14:46:51;29.80;45.40
13707;DHT22;6925;47.816;13.072;2023-07-20T14:49:19;29.90;44.80
13707;DHT22;6925;47.816;13.072;2023-07-20T14:51:47;29.90;44.00
13707;DHT22;6925;47.816;13.072;2023-07-20T14:54:15;29.90;44.20
13707;DHT22;6925;47.816;13.072;2023-07-20T14:56:50;29.80;44.20
13707;DHT22;6925;47.816;13.072;2023-07-20T14:59:18;29.70;44.60
13707;DHT22;6925;47.816;13.072;2023-07-20T15:01:46;29.70;45.20
13707;DHT22;6925;47.816;13.072;2023-07-20T15:04:13;29.70;45.50
13707;DHT22;6925;47.816;13.072;2023-07-20T15:06:41;29.70;46.30
13707;DHT22;6925;47.816;13.072;2023-07-20T15:09:09;29.70;46.40
13707;DHT22;6925;47.816;13.072;2023-07-20T15:11:36;29.70;45.90
13707;DHT22;6925;47.816;13.072;2023-07-20T15:14:03;29.60;46.50
13707;DHT22;6925;47.816;13.072;2023-07-20T15:16:30;29.60;45.00
13707;DHT22;6925;47.816;13.072;2023-07-20T15:18:57;29.40;44.80
13707;DHT22;6925;47.816;13.072;2023-07-20T15:21:25;29.50;46.40
13707;DHT22;6925;47.816;13.072;2023-07-20T15:23:56;29.60;46.20
13707;DHT22;6925;47.816;13.072;2023-07-20T15:26:24;29.60;46.80
13707;DHT22;6925;47.816;13.072;2023-07-20T15:28:52;29.70;46.90
13707;DHT22;6925;47.816;13.072;2023-07-20T15:31:19;29.60;44.50
13707;DHT22;6925;47.816;13.072;2023-07-20T15:33:46;29.50;45.40
13707;DHT22;6925;47.816;13.072;2023-07-20T15:36:13;29.40;47.50